Fort Wainwright, AK

5:33 AM AKDT on October 31, 2014 (GMT -0800)
Ladd Army Air Field | Change Station
CLOSE
Current Station
Airport
Location: Fairbanks Ft. Wainwright,
Elevation: 453 ft
Nearby Weather Stations

Elev 453 ft 64.84 °N, 147.61 °W | Updated 37 minutes ago

Overcast
Overcast
11 °F
Feels Like 5 °F
N
4
Wind Variable Wind from East

Today
High -- | Low -- °F
--% Chance of Precip.
Yesterday
High -- | Low -- °F
Precip. -- in
9:35 AM 5:31 PM
First Quarter, 55% visible
Pressure 29.52 in
Visibility 8.0 miles
Clouds Overcast 6500 ft
Windchill 5 °F
Dew Point 6 °F
Humidity 81%
Rainfall 0.00 in
Snow Depth Not available.
UV 0 out of 12
Pollen Not available.
Air Quality Not available.
Flu Activity Not available.
METAR PAFB 311256Z AUTO 08003KT 8SM OVC065 M12/M14 A2948 RMK SNE41 SLP995 P0000 T11171144 $ VIA AUTODIAL

More Conditions Fewer Conditions

Pressure 29.52 in
Visibility 8.0 miles
Clouds Overcast 6500 ft
Windchill 5 °F
Dew Point 6 °F
Humidity 81%
Rainfall 0.00 in
Snow Depth Not available.
UV 0 out of 12
Pollen Not available.
Air Quality Not available.
Flu Activity Not available.
METAR PAFB 311256Z AUTO 08003KT 8SM OVC065 M12/M14 A2948 RMK SNE41 SLP995 P0000 T11171144 $ VIA AUTODIAL

More Conditions Fewer Conditions

10-Day Weather Forecast

Almanac

Astronomy

Oct. 31, 2014 Rise Set
Actual Time
Civil Twilight
Nautical Twilight
Astronomical Twilight
Moon
Length of Visible Light
Length of Day
Tomorrow will be .
, % of the Moon is Illuminated

Today's Extremes

State Highs State Lows

Community

WunderPhotos

Upload Photos

1,766,610 photos uploaded!

WunderBlogs® & News

Nearby

Air Quality

  Air Quality AQ Index Pollutant
Not available.

Snow Depth

Station Depth Elevation

Earthquake Activity

City Distance Mag. Time & Date
Minimum magnitude displayed is 2.5.

Coastal Water Temperatures

Place Temperature

Nearby Weather Stations